Peabody, KS (66866)

11:50 AM CDT on August 29, 2014 (GMT -0500)
APRSWXNET Goessel KS US | Change Station
CLOSE
Current Station
Personal Weather Station
Location: North Newton, KS
Elevation: 1515 ft
Nearby Weather Stations

Elev 1515 ft 38.18 °N, 97.30 °W | Updated 57 minutes ago

Partly Cloudy
Partly Cloudy
74 °F
Feels Like 74 °F
N
5
Wind Variable Wind from SSW
Gusts 8.0 mph

Today
High -- | Low -- °F
--% Chance of Precip.
Yesterday
High -- | Low -- °F
Precip. -- in
6:55 AM 8:02 PM
Waxing Crescent, 15% visible
Pressure 29.92 in
Visibility 10.0 miles
Clouds Few 6500 ft
Heat Index 74 °F
Dew Point 68 °F
Humidity 82%
Rainfall -999.00 in
Snow Depth Not available.
UV 7 out of 12
Pollen 9.20 out of 12
Air Quality Not available.
Flu Activity Not available.
METAR KEWK 291635Z AUTO 19010KT 10SM FEW065 24/18 A2992 RMK AO1

More Conditions Fewer Conditions

Pressure 29.92 in
Visibility 10.0 miles
Clouds Few 6500 ft
Heat Index 74 °F
Dew Point 68 °F
Humidity 82%
Rainfall -999.00 in
Snow Depth Not available.
UV 7 out of 12
Pollen 9.20 out of 12
Air Quality Not available.
Flu Activity Not available.
METAR KEWK 291635Z AUTO 19010KT 10SM FEW065 24/18 A2992 RMK AO1

More Conditions Fewer Conditions

10-Day Weather Forecast

Almanac

Astronomy

Aug. 29, 2014 Rise Set
Actual Time 6:55 AM CDT 8:02 PM CDT
Civil Twilight 6:28 AM CDT 8:29 PM CDT
Nautical Twilight 5:55 AM CDT 9:01 PM CDT
Astronomical Twilight 5:22 AM CDT 9:35 PM CDT
Moon 10:42 AM CDT 10:05 PM CDT
Length of Visible Light 14h 01m
Length of Day
13h 06m
Tomorrow will be 2m 20s shorter.
Waxing Crescent, 15% of the Moon is Illuminated
Today
Waxing Crescent
Sep 2
First Quarter
Sep 8
Full
Sep 15
Last Quarter
Sep 24
New

Today's Extremes

State Highs State Lows

Community

WunderPhotos

Upload Photos

1,748,285 photos uploaded!

Nearby

Snow Depth

Station Depth Elevation
No new snow has been reported.

Earthquake Activity

City Distance Mag. Time & Date
Perry, Oklahoma 136 miles 3.0 4:52 AM CDT
2014-08-29
Anthony, Kansas 87 miles 2.8 10:11 AM CDT
2014-08-27
Minimum magnitude displayed is 2.5.

Coastal Water Temperatures

Place Temperature
No Stations Reporting

Nearby Weather Stations